createdAt,value
2022-10-23T00:01:19.721Z,11.50
2022-10-23T00:03:47.247Z,21.93
2022-10-23T00:06:14.688Z,8.33
2022-10-23T00:08:41.353Z,7.50
2022-10-23T00:11:13.009Z,12.53
2022-10-23T00:13:40.075Z,10.13
2022-10-23T00:16:07.529Z,11.43
2022-10-23T00:18:34.192Z,7.43
2022-10-23T00:21:01.643Z,5.50
2022-10-23T00:23:28.155Z,12.00
2022-10-23T00:25:54.581Z,7.23
2022-10-23T00:28:21.051Z,13.97
2022-10-23T00:30:47.490Z,8.30
2022-10-23T00:33:13.917Z,5.67
2022-10-23T00:35:41.277Z,7.40
2022-10-23T00:38:08.909Z,9.90
2022-10-23T00:40:36.351Z,12.87
2022-10-23T00:43:03.828Z,16.40
2022-10-23T00:45:33.380Z,11.37
2022-10-23T00:48:01.722Z,6.63
2022-10-23T00:50:31.339Z,10.80
2022-10-23T00:53:00.719Z,5.80
2022-10-23T00:55:28.346Z,6.57
2022-10-23T00:57:55.075Z,5.90
2022-10-23T01:00:27.570Z,6.33
2022-10-23T01:02:54.997Z,6.30
2022-10-23T01:05:36.643Z,8.50
2022-10-23T01:08:12.753Z,10.90
2022-10-23T01:10:52.625Z,7.80
2022-10-23T01:13:37.166Z,10.47
2022-10-23T01:16:17.882Z,9.30
2022-10-23T01:19:03.929Z,7.90
2022-10-23T01:21:58.929Z,13.20
2022-10-23T01:24:49.965Z,6.50
2022-10-23T01:27:19.036Z,13.33
2022-10-23T01:30:11.731Z,7.43
2022-10-23T01:33:04.285Z,12.60
2022-10-23T01:35:46.812Z,10.57
2022-10-23T01:38:27.587Z,11.30
2022-10-23T01:41:19.929Z,6.17
2022-10-23T01:44:10.840Z,4.63
2022-10-23T01:46:37.543Z,5.80
2022-10-23T01:49:07.862Z,10.73
2022-10-23T01:51:37.854Z,12.13
2022-10-23T01:54:07.641Z,7.73
2022-10-23T01:56:36.148Z,4.63
2022-10-23T01:59:08.562Z,9.43
2022-10-23T02:01:38.460Z,8.30
2022-10-23T02:04:10.230Z,6.97
2022-10-23T02:06:36.657Z,8.13
2022-10-23T02:09:04.440Z,5.10
2022-10-23T02:11:37.177Z,13.47
2022-10-23T02:14:06.629Z,7.07
2022-10-23T02:16:45.792Z,6.70
2022-10-23T02:19:17.991Z,6.77
2022-10-23T02:22:06.684Z,6.23
2022-10-23T02:24:39.272Z,8.27
2022-10-23T02:27:13.764Z,6.23
2022-10-23T02:29:45.555Z,5.77
2022-10-23T02:32:14.509Z,11.23
2022-10-23T02:34:41.145Z,6.33
2022-10-23T02:37:07.653Z,3.63
2022-10-23T02:39:34.229Z,6.70
2022-10-23T02:42:11.266Z,6.60
2022-10-23T02:45:08.526Z,8.17
2022-10-23T02:47:41.517Z,11.27
2022-10-23T02:50:23.714Z,11.83
2022-10-23T02:53:02.549Z,14.40
2022-10-23T02:55:44.539Z,7.67
2022-10-23T02:58:29.598Z,6.40
2022-10-23T03:01:03.610Z,8.10
2022-10-23T03:03:35.257Z,7.43
2022-10-23T03:06:01.853Z,11.23
2022-10-23T03:08:28.287Z,8.57
2022-10-23T03:10:54.758Z,5.40
2022-10-23T03:13:21.264Z,8.10
2022-10-23T03:15:47.683Z,9.23
2022-10-23T03:18:14.068Z,10.40
2022-10-23T03:20:40.496Z,12.10
2022-10-23T03:23:06.964Z,8.93
2022-10-23T03:25:33.371Z,9.27
2022-10-23T03:28:00.253Z,11.53
2022-10-23T03:30:26.666Z,6.87
2022-10-23T03:32:53.073Z,8.10
2022-10-23T03:35:19.510Z,8.80
2022-10-23T03:37:46.002Z,8.20
2022-10-23T03:40:12.517Z,9.10
2022-10-23T03:42:38.989Z,8.23
2022-10-23T03:45:05.884Z,10.10
2022-10-23T03:47:35.147Z,8.60
2022-10-23T03:50:01.864Z,8.93
2022-10-23T03:52:28.276Z,10.90
2022-10-23T03:54:54.670Z,15.53
2022-10-23T03:57:21.125Z,10.17
2022-10-23T03:59:47.556Z,7.10
2022-10-23T04:02:13.991Z,8.60
2022-10-23T04:04:40.470Z,13.10
2022-10-23T04:07:06.846Z,10.03
2022-10-23T04:09:33.273Z,11.77
2022-10-23T04:11:59.709Z,9.50
2022-10-23T04:14:26.317Z,11.23
2022-10-23T04:16:52.780Z,9.00
2022-10-23T04:19:19.245Z,10.77
2022-10-23T04:21:45.682Z,11.00
2022-10-23T04:24:12.081Z,8.73
2022-10-23T04:26:38.509Z,4.80
2022-10-23T04:29:05.098Z,9.37
2022-10-23T04:31:31.516Z,7.07
2022-10-23T04:33:57.989Z,10.20
2022-10-23T04:36:24.443Z,10.60
2022-10-23T04:38:50.880Z,8.90
2022-10-23T04:41:17.396Z,9.77
2022-10-23T04:43:43.832Z,7.57
2022-10-23T04:46:10.333Z,9.30
2022-10-23T04:48:36.729Z,6.13
2022-10-23T04:51:05.791Z,11.53
2022-10-23T04:53:32.846Z,7.27
2022-10-23T04:56:00.445Z,8.60
2022-10-23T04:58:28.574Z,7.70
2022-10-23T05:00:55.731Z,11.13
2022-10-23T05:03:23.637Z,8.20
2022-10-23T05:05:53.322Z,8.27
2022-10-23T05:08:19.893Z,9.30
2022-10-23T05:10:47.859Z,5.70
2022-10-23T05:13:14.420Z,12.53
2022-10-23T05:15:40.973Z,15.60
2022-10-23T05:18:21.933Z,9.63
2022-10-23T05:20:51.792Z,8.17
2022-10-23T05:23:22.432Z,14.60
2022-10-23T05:25:48.869Z,6.10
2022-10-23T05:28:15.509Z,10.03
2022-10-23T05:30:42.669Z,8.93
2022-10-23T05:33:09.910Z,8.23
2022-10-23T05:35:36.955Z,7.27
2022-10-23T05:38:04.542Z,8.47
2022-10-23T05:40:31.052Z,7.20
2022-10-23T05:42:57.493Z,7.07
2022-10-23T05:45:23.942Z,7.20
2022-10-23T05:47:50.489Z,7.57
2022-10-23T05:50:17.359Z,11.23
2022-10-23T05:52:46.330Z,7.97
2022-10-23T05:55:12.762Z,8.63
2022-10-23T05:57:39.189Z,9.30
2022-10-23T06:00:06.240Z,10.57
2022-10-23T06:02:33.778Z,10.67
2022-10-23T06:05:00.334Z,11.47
2022-10-23T06:07:31.177Z,9.53
2022-10-23T06:10:00.299Z,9.23
2022-10-23T06:12:26.815Z,12.03
2022-10-23T06:14:53.230Z,12.63
2022-10-23T06:17:19.669Z,9.80
2022-10-23T06:19:46.301Z,12.17
2022-10-23T06:22:13.095Z,12.43
2022-10-23T06:24:39.487Z,16.80
2022-10-23T06:27:05.912Z,11.70
2022-10-23T06:29:32.338Z,11.20
2022-10-23T06:31:58.773Z,11.83
2022-10-23T06:34:25.204Z,12.77
2022-10-23T06:36:51.610Z,10.17
2022-10-23T06:39:17.979Z,14.03
2022-10-23T06:41:45.404Z,12.67
2022-10-23T06:44:11.776Z,9.53
2022-10-23T06:46:38.156Z,11.40
2022-10-23T06:49:04.516Z,13.20
2022-10-23T06:51:30.955Z,10.80
2022-10-23T06:53:57.402Z,11.17
2022-10-23T06:56:25.257Z,9.87
2022-10-23T06:58:51.815Z,11.07
2022-10-23T07:01:18.374Z,10.97
2022-10-23T07:03:45.099Z,14.03
2022-10-23T07:06:11.622Z,13.50
2022-10-23T07:08:38.369Z,11.20
2022-10-23T07:11:10.249Z,13.60
2022-10-23T07:13:38.472Z,14.00
2022-10-23T07:16:16.432Z,11.87
2022-10-23T07:18:43.362Z,12.40
2022-10-23T07:21:09.991Z,11.60
2022-10-23T07:23:36.440Z,8.63
2022-10-23T07:26:11.381Z,8.33
2022-10-23T07:28:37.906Z,11.33
2022-10-23T07:31:04.548Z,8.60
2022-10-23T07:33:30.998Z,8.60
2022-10-23T07:35:57.416Z,9.30
2022-10-23T07:38:23.973Z,7.50
2022-10-23T07:40:53.850Z,7.10
2022-10-23T07:43:21.052Z,9.00
2022-10-23T07:45:48.895Z,10.30
2022-10-23T07:48:16.364Z,9.90
2022-10-23T07:50:42.829Z,9.87
2022-10-23T07:53:19.221Z,10.30
2022-10-23T07:55:57.060Z,10.70
2022-10-23T07:58:24.172Z,7.90
2022-10-23T08:00:55.850Z,12.90
2022-10-23T08:03:22.317Z,11.53
2022-10-23T08:05:48.716Z,8.00
2022-10-23T08:08:15.129Z,8.30
2022-10-23T08:10:41.710Z,6.73
2022-10-23T08:13:11.801Z,9.30
2022-10-23T08:15:38.229Z,9.33
2022-10-23T08:18:04.667Z,10.57
2022-10-23T08:20:31.092Z,8.07
2022-10-23T08:22:57.538Z,5.80
2022-10-23T08:25:25.242Z,11.70
2022-10-23T08:27:52.544Z,6.80
2022-10-23T08:30:18.979Z,10.30
2022-10-23T08:32:45.365Z,7.00
2022-10-23T08:35:11.760Z,8.57
2022-10-23T08:37:38.194Z,5.70
2022-10-23T08:40:05.111Z,7.47
2022-10-23T08:42:36.284Z,6.20
2022-10-23T08:45:14.229Z,9.60
2022-10-23T08:47:49.452Z,7.70
2022-10-23T08:53:13.333Z,5.03
2022-10-23T08:55:46.647Z,6.97
2022-10-23T08:58:23.494Z,8.07
2022-10-23T09:00:51.477Z,7.27
2022-10-23T09:03:18.579Z,7.07
2022-10-23T09:05:59.953Z,4.77
2022-10-23T09:08:48.427Z,8.00
2022-10-23T09:11:35.710Z,5.43
2022-10-23T09:14:19.657Z,8.20
2022-10-23T09:16:49.284Z,6.53
2022-10-23T09:19:19.193Z,8.70
2022-10-23T09:21:49.753Z,6.97
2022-10-23T09:24:18.692Z,7.77
2022-10-23T09:26:49.701Z,8.00
2022-10-23T09:29:27.522Z,8.37
2022-10-23T09:32:01.843Z,6.40
2022-10-23T09:34:30.942Z,8.67
2022-10-23T09:37:21.752Z,9.27
2022-10-23T09:39:48.222Z,7.37
2022-10-23T09:42:23.891Z,7.13
2022-10-23T09:44:53.133Z,7.60
2022-10-23T09:47:22.699Z,6.20
2022-10-23T09:49:52.173Z,5.17
2022-10-23T09:52:18.473Z,6.37
2022-10-23T09:54:54.491Z,4.87
2022-10-23T09:57:44.012Z,6.80
2022-10-23T10:00:13.745Z,5.40
2022-10-23T10:02:57.175Z,4.73
2022-10-23T10:05:38.319Z,5.47
2022-10-23T10:08:20.550Z,5.20
2022-10-23T10:10:54.069Z,7.37
2022-10-23T10:13:33.218Z,8.33
2022-10-23T10:16:18.544Z,7.53
2022-10-23T10:18:57.388Z,8.07
2022-10-23T10:21:45.369Z,5.83
2022-10-23T10:24:38.980Z,4.40
2022-10-23T10:27:34.496Z,6.37
2022-10-23T10:30:12.675Z,5.23
2022-10-23T10:32:57.872Z,5.00
2022-10-23T10:35:42.722Z,13.00
2022-10-23T10:38:35.622Z,9.47
2022-10-23T10:41:26.685Z,10.20
2022-10-23T10:44:04.574Z,6.00
2022-10-23T10:46:50.495Z,6.50
2022-10-23T10:49:30.595Z,6.40
2022-10-23T10:52:21.388Z,6.73
2022-10-23T10:55:09.209Z,8.53
2022-10-23T10:57:41.980Z,5.80
2022-10-23T11:00:20.572Z,5.00
2022-10-23T11:02:55.174Z,5.30
2022-10-23T11:05:44.513Z,7.33
2022-10-23T11:08:14.244Z,4.10
2022-10-23T11:10:45.565Z,4.47
2022-10-23T11:13:27.282Z,5.13
2022-10-23T11:16:00.264Z,5.10
2022-10-23T11:18:29.628Z,5.93
2022-10-23T11:21:16.941Z,6.50
2022-10-23T11:24:41.418Z,5.63
2022-10-23T11:27:29.974Z,6.10
2022-10-23T11:30:28.681Z,6.03
2022-10-23T11:33:18.039Z,7.13
2022-10-23T11:35:53.170Z,4.83
2022-10-23T11:38:24.524Z,5.13
2022-10-23T11:40:54.730Z,5.50
2022-10-23T11:43:36.808Z,4.20
2022-10-23T11:46:14.788Z,5.63
2022-10-23T11:48:43.587Z,9.60
2022-10-23T11:51:30.716Z,5.03
2022-10-23T11:54:15.323Z,5.40
2022-10-23T11:57:10.423Z,3.73
2022-10-23T11:59:49.134Z,4.93
2022-10-23T12:02:38.132Z,4.80
2022-10-23T12:05:06.980Z,5.90
2022-10-23T12:07:38.001Z,5.37
2022-10-23T12:10:27.008Z,5.13
2022-10-23T12:12:58.870Z,3.33
2022-10-23T12:15:26.186Z,6.07
2022-10-23T12:18:08.326Z,5.10
2022-10-23T12:20:49.954Z,5.13
2022-10-23T12:23:16.397Z,6.80
2022-10-23T12:25:55.381Z,4.20
2022-10-23T12:28:39.606Z,5.30
2022-10-23T12:31:14.484Z,4.73
2022-10-23T12:34:00.569Z,6.13
2022-10-23T12:36:48.293Z,6.63
2022-10-23T12:39:32.423Z,3.77
2022-10-23T12:42:00.461Z,3.40
2022-10-23T12:44:27.775Z,12.70
2022-10-23T12:47:02.495Z,4.37
2022-10-23T12:49:35.408Z,10.80
2022-10-23T12:52:05.221Z,4.17
2022-10-23T12:54:33.592Z,6.63
2022-10-23T12:57:00.065Z,4.73
2022-10-23T12:59:33.209Z,8.40
2022-10-23T13:02:00.153Z,4.07
2022-10-23T13:04:33.303Z,5.83
2022-10-23T13:07:02.242Z,4.77
2022-10-23T13:09:41.873Z,5.73
2022-10-23T13:12:15.575Z,5.47
2022-10-23T13:14:44.575Z,4.40
2022-10-23T13:17:12.141Z,6.90
2022-10-23T13:19:38.783Z,7.90
2022-10-23T13:22:24.505Z,3.40
2022-10-23T13:24:50.913Z,3.90
2022-10-23T13:27:33.130Z,5.30
2022-10-23T13:29:59.582Z,8.60
2022-10-23T13:32:30.084Z,5.60
2022-10-23T13:35:04.367Z,5.97
2022-10-23T13:37:36.913Z,7.87
2022-10-23T13:40:09.628Z,4.93
2022-10-23T13:42:36.453Z,5.37
2022-10-23T13:45:02.888Z,6.30
2022-10-23T13:47:29.360Z,5.93
2022-10-23T13:49:55.712Z,5.30
2022-10-23T13:52:23.717Z,3.33
2022-10-23T13:54:50.641Z,3.43
2022-10-23T13:57:17.028Z,6.77
2022-10-23T13:59:43.493Z,7.73
2022-10-23T14:02:23.513Z,6.83
2022-10-23T14:04:50.876Z,2.23
2022-10-23T14:07:17.737Z,4.93
2022-10-23T14:09:44.693Z,8.80
2022-10-23T14:12:12.336Z,4.50
2022-10-23T14:14:38.675Z,7.60
2022-10-23T14:17:05.075Z,5.77
2022-10-23T14:19:33.845Z,4.20
2022-10-23T14:22:00.293Z,8.10
2022-10-23T14:24:26.677Z,8.27
2022-10-23T14:26:53.105Z,4.90
2022-10-23T14:29:23.897Z,3.60
2022-10-23T14:31:51.121Z,7.03
2022-10-23T14:34:17.547Z,7.60
2022-10-23T14:36:56.491Z,3.00
2022-10-23T14:39:23.428Z,3.90
2022-10-23T14:41:49.842Z,5.33
2022-10-23T14:44:16.217Z,3.00
2022-10-23T14:46:42.666Z,10.97
2022-10-23T14:49:09.029Z,4.67
2022-10-23T14:51:35.435Z,7.80
2022-10-23T14:54:04.526Z,7.00
2022-10-23T14:56:33.536Z,5.20
2022-10-23T14:59:03.644Z,5.70
2022-10-23T15:01:35.647Z,6.53
2022-10-23T15:04:02.385Z,3.77
2022-10-23T15:06:28.821Z,10.00
2022-10-23T15:08:55.567Z,5.23
2022-10-23T15:11:23.482Z,6.97
2022-10-23T15:13:50.135Z,5.17
2022-10-23T15:16:16.880Z,4.23
2022-10-23T15:18:43.565Z,5.90
2022-10-23T15:21:10.177Z,6.90
2022-10-23T15:23:38.959Z,8.77
2022-10-23T15:26:11.469Z,6.90
2022-10-23T15:28:38.484Z,6.20
2022-10-23T15:31:05.940Z,4.87
2022-10-23T15:33:32.392Z,6.80
2022-10-23T15:35:58.810Z,5.30
2022-10-23T15:38:26.078Z,7.67
2022-10-23T15:40:58.893Z,4.00
2022-10-23T15:43:25.389Z,4.97
2022-10-23T15:45:51.868Z,3.17
2022-10-23T15:48:18.432Z,7.00
2022-10-23T15:50:44.792Z,4.00
2022-10-23T15:53:11.224Z,3.70
2022-10-23T15:55:37.671Z,6.30
2022-10-23T15:58:05.495Z,7.67
2022-10-23T16:00:35.912Z,9.37
2022-10-23T16:03:02.605Z,5.30
2022-10-23T16:05:29.053Z,5.90
2022-10-23T16:07:55.457Z,6.93
2022-10-23T16:10:22.804Z,5.93
2022-10-23T16:12:49.184Z,8.30
2022-10-23T16:15:15.689Z,6.00
2022-10-23T16:17:42.413Z,6.47
2022-10-23T16:20:11.867Z,6.20
2022-10-23T16:22:41.337Z,6.27
2022-10-23T16:25:10.664Z,5.40
2022-10-23T16:27:37.073Z,6.33
2022-10-23T16:30:06.179Z,4.73
2022-10-23T16:32:32.609Z,4.10
2022-10-23T16:34:58.984Z,7.73
2022-10-23T16:37:25.469Z,7.90
2022-10-23T16:39:51.921Z,9.40
2022-10-23T16:44:49.595Z,8.20
2022-10-23T16:47:16.118Z,7.77
2022-10-23T16:49:42.678Z,6.13
2022-10-23T16:52:09.779Z,6.77
2022-10-23T16:54:36.206Z,8.13
2022-10-23T16:57:02.664Z,7.73
2022-10-23T16:59:29.025Z,9.87
2022-10-23T17:01:55.560Z,8.23
2022-10-23T17:04:22.093Z,8.60
2022-10-23T17:06:48.533Z,9.10
2022-10-23T17:09:15.021Z,11.37
2022-10-23T17:11:44.172Z,15.17
2022-10-23T17:14:17.408Z,7.33
2022-10-23T17:16:51.592Z,11.70
2022-10-23T17:19:40.102Z,11.30
2022-10-23T17:22:10.604Z,13.47
2022-10-23T17:24:41.360Z,10.60
2022-10-23T17:27:08.234Z,4.43
2022-10-23T17:29:35.270Z,6.50
2022-10-23T17:32:01.926Z,5.23
2022-10-23T17:34:28.340Z,4.83
2022-10-23T17:36:55.688Z,7.00
2022-10-23T17:39:26.181Z,4.03
2022-10-23T17:41:53.524Z,4.70
2022-10-23T17:44:20.153Z,4.80
2022-10-23T17:46:52.130Z,4.40
2022-10-23T17:49:18.507Z,3.90
2022-10-23T17:51:44.953Z,7.50
2022-10-23T17:54:12.843Z,4.63
2022-10-23T17:56:40.687Z,9.83
2022-10-23T17:59:12.146Z,7.73
2022-10-23T18:01:39.280Z,7.40
2022-10-23T18:04:07.671Z,4.93
2022-10-23T18:06:46.401Z,4.87
2022-10-23T18:09:13.086Z,7.43
2022-10-23T18:11:45.373Z,8.63
2022-10-23T18:14:15.657Z,10.43
2022-10-23T18:16:42.220Z,10.93
2022-10-23T18:19:08.705Z,7.37
2022-10-23T18:21:35.861Z,8.30
2022-10-23T18:24:03.031Z,6.83
2022-10-23T18:26:32.223Z,5.77
2022-10-23T18:28:59.378Z,13.53
2022-10-23T18:31:29.570Z,6.50
2022-10-23T18:33:57.967Z,10.77
2022-10-23T18:36:28.520Z,8.27
2022-10-23T18:41:23.565Z,6.10
2022-10-23T18:43:51.660Z,11.63
2022-10-23T18:46:19.669Z,12.70
2022-10-23T18:48:47.604Z,9.40
2022-10-23T18:51:17.068Z,11.80
2022-10-23T18:53:46.645Z,7.63
2022-10-23T18:56:14.848Z,10.13
2022-10-23T18:58:41.366Z,9.40
2022-10-23T19:01:07.845Z,6.50
2022-10-23T19:03:34.349Z,9.63
2022-10-23T19:06:00.762Z,9.83
2022-10-23T19:08:27.138Z,9.40
2022-10-23T19:10:54.552Z,11.20
2022-10-23T19:13:21.730Z,12.07
2022-10-23T19:15:48.149Z,8.60
2022-10-23T19:18:14.594Z,11.97
2022-10-23T19:20:42.439Z,8.00
2022-10-23T19:23:12.736Z,13.37
2022-10-23T19:25:40.677Z,15.00
2022-10-23T19:28:07.176Z,13.63
2022-10-23T19:30:34.553Z,9.20
2022-10-23T19:33:01.000Z,11.23
2022-10-23T19:35:27.437Z,9.50
2022-10-23T19:37:53.796Z,8.17
2022-10-23T19:40:20.412Z,10.30
2022-10-23T19:42:47.047Z,9.27
2022-10-23T19:45:14.888Z,8.33
2022-10-23T19:47:42.350Z,9.20
2022-10-23T19:50:09.691Z,15.37
2022-10-23T19:52:36.503Z,17.70
2022-10-23T19:55:03.719Z,9.30
2022-10-23T19:57:33.713Z,10.17
2022-10-23T20:00:01.133Z,13.90
2022-10-23T20:02:28.317Z,13.80
2022-10-23T20:04:54.791Z,16.80
2022-10-23T20:07:21.582Z,13.33
2022-10-23T20:09:48.652Z,16.47
2022-10-23T20:12:15.045Z,14.43
2022-10-23T20:14:41.542Z,9.50
2022-10-23T20:17:08.248Z,10.10
2022-10-23T20:19:34.983Z,11.70
2022-10-23T20:22:01.477Z,9.63
2022-10-23T20:24:27.960Z,11.57
2022-10-23T20:26:55.625Z,10.07
2022-10-23T20:29:22.673Z,11.47
2022-10-23T20:31:49.076Z,11.83
2022-10-23T20:34:15.482Z,12.90
2022-10-23T20:36:46.683Z,14.63
2022-10-23T20:39:16.706Z,14.93
2022-10-23T20:41:45.009Z,10.53
2022-10-23T20:46:47.183Z,13.27
2022-10-23T20:49:14.559Z,8.73
2022-10-23T20:51:41.872Z,10.87
2022-10-23T20:54:08.345Z,15.57
2022-10-23T20:56:37.113Z,9.63
2022-10-23T20:59:09.862Z,9.97
2022-10-23T21:01:40.023Z,16.27
2022-10-23T21:04:06.865Z,11.90
2022-10-23T21:06:45.708Z,15.07
2022-10-23T21:09:18.338Z,14.97
2022-10-23T21:11:44.784Z,12.40
2022-10-23T21:14:11.742Z,10.90
2022-10-23T21:16:46.374Z,12.63
2022-10-23T21:19:15.737Z,12.27
2022-10-23T21:21:43.194Z,13.63
2022-10-23T21:24:14.065Z,14.73
2022-10-23T21:26:40.515Z,12.80
2022-10-23T21:29:18.077Z,16.03
2022-10-23T21:31:45.460Z,16.73
2022-10-23T21:34:12.073Z,11.40
2022-10-23T21:36:53.916Z,15.03
2022-10-23T21:39:25.150Z,14.40
2022-10-23T21:41:51.525Z,15.10
2022-10-23T21:44:17.995Z,13.20
2022-10-23T21:46:44.422Z,11.97
2022-10-23T21:49:11.674Z,12.37
2022-10-23T21:51:38.821Z,11.80
2022-10-23T21:54:07.990Z,14.60
2022-10-23T21:56:42.316Z,13.13
2022-10-23T21:59:12.772Z,20.50
2022-10-23T22:01:40.791Z,15.87
2022-10-23T22:04:07.463Z,13.00
2022-10-23T22:06:33.865Z,10.90
2022-10-23T22:09:00.415Z,14.97
2022-10-23T22:11:27.684Z,14.23
2022-10-23T22:13:54.591Z,13.30
2022-10-23T22:16:21.125Z,18.73
2022-10-23T22:18:48.409Z,18.20
2022-10-23T22:21:20.853Z,15.80
2022-10-23T22:23:51.055Z,11.97
2022-10-23T22:26:24.952Z,13.90
2022-10-23T22:28:53.438Z,15.00
2022-10-23T22:31:25.836Z,13.70
2022-10-23T22:33:53.223Z,14.13
2022-10-23T22:36:20.276Z,12.10
2022-10-23T22:38:47.445Z,15.63
2022-10-23T22:41:14.358Z,12.73
2022-10-23T22:43:40.732Z,24.67
2022-10-23T22:46:15.645Z,13.53
2022-10-23T22:48:42.665Z,17.83
2022-10-23T22:51:11.612Z,11.40
2022-10-23T22:53:38.089Z,12.47
2022-10-23T22:56:09.242Z,14.93
2022-10-23T22:58:36.634Z,9.70
2022-10-23T23:01:08.119Z,15.30
2022-10-23T23:03:35.996Z,14.97
2022-10-23T23:06:03.555Z,12.33
2022-10-23T23:08:30.101Z,15.63
2022-10-23T23:10:57.492Z,16.67
2022-10-23T23:13:24.534Z,14.83
2022-10-23T23:15:51.177Z,12.10
2022-10-23T23:18:17.590Z,13.17
2022-10-23T23:20:44.001Z,13.90
2022-10-23T23:23:11.807Z,16.07
2022-10-23T23:25:46.243Z,15.87
2022-10-23T23:28:16.257Z,10.97
2022-10-23T23:30:43.127Z,7.17
2022-10-23T23:33:11.234Z,9.03
2022-10-23T23:35:45.515Z,15.87
2022-10-23T23:38:12.738Z,13.33
2022-10-23T23:40:40.203Z,9.00
2022-10-23T23:43:07.048Z,11.50
2022-10-23T23:45:33.808Z,6.73
2022-10-23T23:48:00.245Z,11.63
2022-10-23T23:50:27.960Z,15.97
2022-10-23T23:52:54.411Z,11.33
2022-10-23T23:55:20.821Z,9.10
2022-10-23T23:57:47.539Z,16.50
